Time;durP1;ratioP1;P1;durP2;ratioP2;P2;SDS_P1;SDS_P2;PMS_P1;PMS_P2;Temp;Humidity;BMP_temperature;BMP_pressure;BME280_temperature;BME280_humidity;BME280_pressure;Samples;Min_cycle;Max_cycle;Signal;HPM_P1;HPM_P2
2022/01/05 00:00:07;;;;;;;;;;;20.30;42.00;;;;;;482313;246;1215;-46
2022/01/05 00:02:08;;;;;;;;;;;20.30;42.00;;;;;;482303;246;1569;-46
2022/01/05 00:04:09;;;;;;;;;;;20.30;42.00;;;;;;482287;246;2188;-46
2022/01/05 00:06:11;;;;;;;;;;;20.40;41.90;;;;;;482642;246;1332;-46
2022/01/05 00:08:14;;;;;;;;;;;20.40;41.90;;;;;;482643;246;1177;-46
2022/01/05 00:10:14;;;;;;;;;;;20.40;42.00;;;;;;482473;246;2325;-46
2022/01/05 00:12:15;;;;;;;;;;;20.30;41.90;;;;;;482419;246;1179;-46
2022/01/05 00:14:16;;;;;;;;;;;20.30;41.90;;;;;;482308;246;1058;-46
2022/01/05 00:16:18;;;;;;;;;;;20.30;41.90;;;;;;482434;246;1262;-46
2022/01/05 00:18:19;;;;;;;;;;;20.30;41.90;;;;;;482275;246;1195;-46
2022/01/05 00:20:20;;;;;;;;;;;20.40;42.00;;;;;;482257;246;1342;-46
2022/01/05 00:22:21;;;;;;;;;;;20.40;41.90;;;;;;482154;246;1248;-46
2022/01/05 00:24:23;;;;;;;;;;;20.40;41.90;;;;;;482284;246;2197;-46
2022/01/05 00:26:27;;;;;;;;;;;20.30;41.90;;;;;;482199;246;1172;-47
2022/01/05 00:28:26;;;;;;;;;;;20.30;41.90;;;;;;482136;247;2220;-46
2022/01/05 00:30:28;;;;;;;;;;;20.40;41.90;;;;;;482222;246;1239;-46
2022/01/05 00:32:29;;;;;;;;;;;20.30;41.90;;;;;;482279;246;1239;-46
2022/01/05 00:34:30;;;;;;;;;;;20.30;41.90;;;;;;482283;246;1102;-46
2022/01/05 00:36:32;;;;;;;;;;;20.30;41.90;;;;;;482516;246;1357;-46
2022/01/05 00:38:34;;;;;;;;;;;20.30;41.90;;;;;;482503;246;1394;-46
2022/01/05 00:40:34;;;;;;;;;;;20.30;41.90;;;;;;482666;246;1622;-46
2022/01/05 00:42:36;;;;;;;;;;;20.30;42.00;;;;;;482192;246;1281;-46
2022/01/05 00:44:37;;;;;;;;;;;20.30;42.00;;;;;;482296;246;2192;-46
2022/01/05 00:46:38;;;;;;;;;;;20.30;42.00;;;;;;482287;246;1324;-46
2022/01/05 00:48:40;;;;;;;;;;;20.30;42.10;;;;;;482579;246;1107;-46
2022/01/05 00:50:41;;;;;;;;;;;20.30;42.00;;;;;;482303;246;1322;-46
2022/01/05 00:52:42;;;;;;;;;;;20.30;42.00;;;;;;482233;246;1368;-46
2022/01/05 00:54:45;;;;;;;;;;;20.30;42.00;;;;;;482545;246;1082;-46
2022/01/05 00:56:45;;;;;;;;;;;20.30;42.00;;;;;;482535;247;2617;-46
2022/01/05 00:58:46;;;;;;;;;;;20.30;41.90;;;;;;482722;246;1229;-46
2022/01/05 01:00:48;;;;;;;;;;;20.30;42.00;;;;;;482671;246;1197;-47
2022/01/05 01:02:49;;;;;;;;;;;20.30;42.00;;;;;;482439;246;1190;-46
2022/01/05 01:04:50;;;;;;;;;;;20.30;42.00;;;;;;482732;246;2181;-46
2022/01/05 01:06:52;;;;;;;;;;;20.30;41.90;;;;;;482432;246;1256;-46
2022/01/05 01:08:53;;;;;;;;;;;20.30;41.90;;;;;;482321;246;1115;-46
2022/01/05 01:10:54;;;;;;;;;;;20.30;41.90;;;;;;482406;246;1148;-46
2022/01/05 01:12:56;;;;;;;;;;;20.30;41.90;;;;;;482425;246;1696;-47
2022/01/05 01:14:57;;;;;;;;;;;20.30;41.90;;;;;;482706;246;1045;-46
2022/01/05 01:16:58;;;;;;;;;;;20.30;41.90;;;;;;482398;246;1411;-46
2022/01/05 01:19:00;;;;;;;;;;;20.30;41.90;;;;;;482398;246;1085;-46
2022/01/05 01:21:01;;;;;;;;;;;20.30;42.00;;;;;;482606;246;1743;-46
2022/01/05 01:23:02;;;;;;;;;;;20.30;41.90;;;;;;482236;246;1155;-46
2022/01/05 01:25:04;;;;;;;;;;;20.30;41.90;;;;;;482638;246;2169;-47
2022/01/05 01:27:05;;;;;;;;;;;20.30;41.90;;;;;;482418;246;1685;-46
2022/01/05 01:29:06;;;;;;;;;;;20.30;41.90;;;;;;482316;246;1089;-47
2022/01/05 01:31:08;;;;;;;;;;;20.40;41.90;;;;;;482503;246;1170;-46
2022/01/05 01:33:09;;;;;;;;;;;20.30;41.90;;;;;;482598;246;1169;-46
2022/01/05 01:35:10;;;;;;;;;;;20.30;41.90;;;;;;482303;246;1084;-46
2022/01/05 01:37:11;;;;;;;;;;;20.30;41.90;;;;;;482650;246;1276;-46
2022/01/05 01:39:13;;;;;;;;;;;20.30;42.00;;;;;;482554;246;1068;-46
2022/01/05 01:41:14;;;;;;;;;;;20.20;42.00;;;;;;482188;246;1436;-46
2022/01/05 01:43:16;;;;;;;;;;;20.20;41.90;;;;;;482319;246;1269;-46
2022/01/05 01:45:17;;;;;;;;;;;20.30;42.00;;;;;;482678;246;2177;-46
2022/01/05 01:47:18;;;;;;;;;;;20.20;42.00;;;;;;482313;246;1239;-46
2022/01/05 01:49:19;;;;;;;;;;;20.40;41.80;;;;;;482751;246;1111;-46
2022/01/05 01:51:21;;;;;;;;;;;20.60;41.30;;;;;;482419;246;1318;-46
2022/01/05 01:53:22;;;;;;;;;;;20.80;41.00;;;;;;482455;246;1295;-46
2022/01/05 01:55:23;;;;;;;;;;;20.90;40.60;;;;;;482773;246;1081;-46
2022/01/05 01:57:25;;;;;;;;;;;21.10;40.40;;;;;;482278;246;1259;-46
2022/01/05 01:59:26;;;;;;;;;;;21.20;40.20;;;;;;482305;246;1105;-47
2022/01/05 02:01:27;;;;;;;;;;;21.20;39.90;;;;;;482437;246;1548;-46
2022/01/05 02:03:29;;;;;;;;;;;21.30;39.80;;;;;;482699;246;1038;-47
2022/01/05 02:05:30;;;;;;;;;;;21.40;39.70;;;;;;482749;246;2181;-46
2022/01/05 02:07:31;;;;;;;;;;;21.40;39.60;;;;;;482214;246;1978;-46
2022/01/05 02:09:32;;;;;;;;;;;21.50;39.50;;;;;;482330;246;1054;-46
2022/01/05 02:11:34;;;;;;;;;;;21.50;39.40;;;;;;482341;246;1643;-47
2022/01/05 02:13:35;;;;;;;;;;;21.60;39.30;;;;;;482720;246;1103;-46
2022/01/05 02:15:36;;;;;;;;;;;21.60;39.20;;;;;;482256;246;1417;-47
2022/01/05 02:17:47;;;;;;;;;;;21.60;39.10;;;;;;482138;246;1465;-47
2022/01/05 02:19:45;;;;;;;;;;;21.70;39.10;;;;;;482569;247;2187;-46
2022/01/05 02:21:46;;;;;;;;;;;21.70;39.00;;;;;;482331;246;1381;-47
2022/01/05 02:23:48;;;;;;;;;;;21.70;39.00;;;;;;482281;246;1321;-47
2022/01/05 02:25:49;;;;;;;;;;;21.80;38.90;;;;;;482601;246;2137;-47
2022/01/05 02:27:50;;;;;;;;;;;21.80;38.90;;;;;;482639;246;1176;-47
2022/01/05 02:29:52;;;;;;;;;;;21.80;38.80;;;;;;482758;246;1081;-47
2022/01/05 02:31:54;;;;;;;;;;;21.80;38.80;;;;;;482199;246;1245;-47
2022/01/05 02:33:54;;;;;;;;;;;21.90;38.80;;;;;;482548;246;2355;-47
2022/01/05 02:35:56;;;;;;;;;;;21.90;38.80;;;;;;482673;246;1456;-46
2022/01/05 02:37:57;;;;;;;;;;;21.90;38.70;;;;;;482621;246;1272;-47
2022/01/05 02:39:58;;;;;;;;;;;21.90;38.60;;;;;;482689;246;1035;-46
2022/01/05 02:41:59;;;;;;;;;;;22.00;38.70;;;;;;482194;246;1148;-47
2022/01/05 02:44:01;;;;;;;;;;;22.00;38.70;;;;;;482249;246;2193;-46
2022/01/05 02:46:02;;;;;;;;;;;22.00;38.60;;;;;;482208;246;1166;-47
2022/01/05 02:48:03;;;;;;;;;;;22.00;38.60;;;;;;482331;246;1169;-46
2022/01/05 02:50:05;;;;;;;;;;;22.00;38.60;;;;;;482714;246;1423;-47
2022/01/05 02:52:06;;;;;;;;;;;22.00;38.50;;;;;;482669;246;1184;-47
2022/01/05 02:54:07;;;;;;;;;;;22.00;38.50;;;;;;482439;246;1175;-47
2022/01/05 02:56:09;;;;;;;;;;;22.10;38.50;;;;;;482673;246;1448;-46
2022/01/05 02:58:10;;;;;;;;;;;22.00;38.40;;;;;;482700;246;1269;-46
2022/01/05 03:00:12;;;;;;;;;;;22.10;38.40;;;;;;482324;246;1075;-47
2022/01/05 03:02:13;;;;;;;;;;;22.10;38.40;;;;;;482179;246;1229;-46
2022/01/05 03:04:14;;;;;;;;;;;22.10;38.40;;;;;;482724;246;2125;-47
2022/01/05 03:06:15;;;;;;;;;;;22.10;38.40;;;;;;482236;246;1728;-47
2022/01/05 03:08:17;;;;;;;;;;;22.20;38.40;;;;;;482411;246;1207;-47
2022/01/05 03:10:18;;;;;;;;;;;22.20;38.30;;;;;;482611;246;1571;-47
2022/01/05 03:12:19;;;;;;;;;;;22.20;38.30;;;;;;482159;246;1329;-47
2022/01/05 03:14:21;;;;;;;;;;;22.20;38.30;;;;;;482235;246;1216;-47
2022/01/05 03:16:22;;;;;;;;;;;22.20;38.30;;;;;;482393;246;1261;-46
2022/01/05 03:18:23;;;;;;;;;;;22.20;38.30;;;;;;482245;246;1222;-47
2022/01/05 03:20:24;;;;;;;;;;;22.20;38.30;;;;;;482711;246;1122;-47
2022/01/05 03:22:26;;;;;;;;;;;22.20;38.20;;;;;;482345;246;1200;-47
2022/01/05 03:24:27;;;;;;;;;;;22.20;38.20;;;;;;482706;246;2193;-47
2022/01/05 03:26:28;;;;;;;;;;;22.30;38.30;;;;;;482654;246;1248;-46
2022/01/05 03:28:30;;;;;;;;;;;22.30;38.20;;;;;;482378;246;1071;-46
2022/01/05 03:30:33;;;;;;;;;;;22.30;38.20;;;;;;482645;246;1396;-47
2022/01/05 03:32:44;;;;;;;;;;;22.30;38.20;;;;;;482159;247;2304;-46
2022/01/05 03:34:36;;;;;;;;;;;22.30;38.20;;;;;;481960;247;2255;-47
2022/01/05 03:36:35;;;;;;;;;;;22.30;38.20;;;;;;482030;246;2133;-47
2022/01/05 03:38:37;;;;;;;;;;;22.30;38.20;;;;;;482622;246;1115;-46
2022/01/05 03:40:38;;;;;;;;;;;22.30;38.10;;;;;;482252;246;1240;-47
2022/01/05 03:42:39;;;;;;;;;;;22.30;38.10;;;;;;482629;246;1334;-47
2022/01/05 03:44:41;;;;;;;;;;;22.40;38.10;;;;;;482715;246;2133;-46
2022/01/05 03:46:42;;;;;;;;;;;22.40;38.10;;;;;;482448;246;1212;-47
2022/01/05 03:48:43;;;;;;;;;;;22.40;38.10;;;;;;482407;246;1419;-46
2022/01/05 03:50:45;;;;;;;;;;;22.30;38.10;;;;;;482707;246;1294;-46
2022/01/05 03:52:46;;;;;;;;;;;22.40;38.10;;;;;;482228;246;1294;-47
2022/01/05 03:54:47;;;;;;;;;;;22.30;38.10;;;;;;482740;246;1158;-47
2022/01/05 03:56:49;;;;;;;;;;;22.40;38.10;;;;;;482212;246;1336;-47
2022/01/05 03:58:50;;;;;;;;;;;22.40;38.10;;;;;;482487;246;1228;-47
2022/01/05 04:00:51;;;;;;;;;;;22.40;38.00;;;;;;482352;246;1687;-46
2022/01/05 04:02:52;;;;;;;;;;;22.40;38.00;;;;;;482142;246;1242;-47
2022/01/05 04:04:54;;;;;;;;;;;22.40;38.00;;;;;;482475;246;2213;-47
2022/01/05 04:06:55;;;;;;;;;;;22.40;38.00;;;;;;482165;246;1219;-47
2022/01/05 04:08:56;;;;;;;;;;;22.50;38.10;;;;;;482275;246;1336;-46
2022/01/05 04:10:58;;;;;;;;;;;22.40;38.00;;;;;;482232;246;1175;-46
2022/01/05 04:12:59;;;;;;;;;;;22.40;38.00;;;;;;482650;246;1251;-47
2022/01/05 04:15:00;;;;;;;;;;;22.40;38.00;;;;;;482471;246;1166;-47
2022/01/05 04:17:02;;;;;;;;;;;22.50;38.00;;;;;;482506;246;1239;-47
2022/01/05 04:19:03;;;;;;;;;;;22.50;38.00;;;;;;482266;246;1189;-47
2022/01/05 04:21:04;;;;;;;;;;;22.50;38.00;;;;;;482186;246;1151;-46
2022/01/05 04:23:06;;;;;;;;;;;22.50;38.00;;;;;;482483;246;1349;-46
2022/01/05 04:25:07;;;;;;;;;;;22.50;38.00;;;;;;482325;246;2129;-47
2022/01/05 04:27:08;;;;;;;;;;;22.50;37.90;;;;;;482230;246;1496;-46
2022/01/05 04:29:10;;;;;;;;;;;22.50;37.90;;;;;;482348;246;1061;-47
2022/01/05 04:31:11;;;;;;;;;;;22.50;37.90;;;;;;482628;246;2126;-47
2022/01/05 04:33:12;;;;;;;;;;;22.50;37.90;;;;;;482405;246;1271;-47
2022/01/05 04:35:14;;;;;;;;;;;22.50;37.90;;;;;;482302;246;1072;-47
2022/01/05 04:37:15;;;;;;;;;;;22.50;37.90;;;;;;482343;246;1227;-47
2022/01/05 04:39:16;;;;;;;;;;;22.60;37.90;;;;;;482266;247;1214;-47
2022/01/05 04:41:17;;;;;;;;;;;22.50;37.90;;;;;;482212;246;1352;-47
2022/01/05 04:43:19;;;;;;;;;;;22.60;37.90;;;;;;482550;246;1046;-47
2022/01/05 04:45:20;;;;;;;;;;;22.60;37.80;;;;;;482622;246;2133;-46
2022/01/05 04:47:21;;;;;;;;;;;22.60;37.90;;;;;;482428;246;1175;-46
2022/01/05 04:49:23;;;;;;;;;;;22.60;37.80;;;;;;482296;246;1224;-47
2022/01/05 04:51:24;;;;;;;;;;;22.60;37.80;;;;;;482514;246;1559;-47
2022/01/05 04:53:25;;;;;;;;;;;22.60;37.80;;;;;;482247;246;1195;-47
2022/01/05 04:55:27;;;;;;;;;;;22.60;37.80;;;;;;482626;246;1156;-47
2022/01/05 04:57:28;;;;;;;;;;;22.60;37.80;;;;;;482093;246;1213;-47
2022/01/05 04:59:29;;;;;;;;;;;22.60;37.80;;;;;;482660;246;1080;-47
2022/01/05 05:01:31;;;;;;;;;;;22.60;37.80;;;;;;482168;246;1236;-47
2022/01/05 05:03:32;;;;;;;;;;;22.60;37.80;;;;;;482404;246;1279;-47
2022/01/05 05:05:34;;;;;;;;;;;22.60;37.80;;;;;;482468;246;2117;-46
2022/01/05 05:07:35;;;;;;;;;;;22.60;37.80;;;;;;482045;246;1161;-47
2022/01/05 05:09:37;;;;;;;;;;;22.60;37.80;;;;;;482220;246;1219;-47
2022/01/05 05:11:38;;;;;;;;;;;22.60;37.80;;;;;;482060;246;1499;-47
2022/01/05 05:13:39;;;;;;;;;;;22.60;37.80;;;;;;482509;246;1112;-46
2022/01/05 05:15:41;;;;;;;;;;;22.70;37.80;;;;;;482425;246;1141;-47
2022/01/05 05:17:42;;;;;;;;;;;22.70;37.70;;;;;;482151;246;1299;-47
2022/01/05 05:19:43;;;;;;;;;;;22.70;37.80;;;;;;482413;246;1215;-47
2022/01/05 05:21:45;;;;;;;;;;;22.70;37.80;;;;;;482322;246;1709;-47
2022/01/05 05:23:46;;;;;;;;;;;22.70;37.70;;;;;;482068;246;2360;-47
2022/01/05 05:25:47;;;;;;;;;;;22.70;37.80;;;;;;482424;246;2185;-47
2022/01/05 05:27:49;;;;;;;;;;;22.70;37.70;;;;;;482250;246;1162;-47
2022/01/05 05:29:50;;;;;;;;;;;22.70;37.70;;;;;;482228;246;1078;-47
2022/01/05 05:31:51;;;;;;;;;;;22.70;37.70;;;;;;482461;246;1114;-47
2022/01/05 05:33:53;;;;;;;;;;;22.70;37.70;;;;;;482424;246;1215;-47
2022/01/05 05:35:54;;;;;;;;;;;22.70;37.70;;;;;;482119;246;1344;-47
2022/01/05 05:37:55;;;;;;;;;;;22.70;37.70;;;;;;482069;246;1160;-47
2022/01/05 05:39:57;;;;;;;;;;;22.70;37.60;;;;;;482459;246;1083;-47
2022/01/05 05:41:58;;;;;;;;;;;22.70;37.60;;;;;;482273;246;1403;-47
2022/01/05 05:43:59;;;;;;;;;;;22.70;37.60;;;;;;482166;246;1203;-47
2022/01/05 05:46:00;;;;;;;;;;;22.70;37.60;;;;;;482233;246;2126;-46
2022/01/05 05:48:02;;;;;;;;;;;22.70;37.60;;;;;;482295;246;1186;-46
2022/01/05 05:50:03;;;;;;;;;;;22.70;37.60;;;;;;482216;246;1221;-47
2022/01/05 05:52:04;;;;;;;;;;;22.80;37.70;;;;;;482067;246;1435;-46
2022/01/05 05:54:06;;;;;;;;;;;22.80;37.70;;;;;;482140;246;1167;-46
2022/01/05 05:56:07;;;;;;;;;;;22.80;37.60;;;;;;482371;246;1491;-47
2022/01/05 05:58:08;;;;;;;;;;;22.80;37.60;;;;;;482184;246;1133;-47
2022/01/05 06:00:10;;;;;;;;;;;22.80;37.60;;;;;;482499;246;1321;-47
2022/01/05 06:02:11;;;;;;;;;;;22.80;37.60;;;;;;482089;246;1200;-47
2022/01/05 06:04:12;;;;;;;;;;;22.80;37.60;;;;;;482280;246;1145;-47
2022/01/05 06:06:14;;;;;;;;;;;22.80;37.60;;;;;;482501;246;2185;-47
2022/01/05 06:08:15;;;;;;;;;;;22.80;37.70;;;;;;482073;246;1269;-47
2022/01/05 06:10:16;;;;;;;;;;;22.70;37.80;;;;;;482147;246;1290;-47
2022/01/05 06:12:18;;;;;;;;;;;22.50;38.00;;;;;;482084;246;1170;-46
2022/01/05 06:14:19;;;;;;;;;;;22.30;38.50;;;;;;482170;246;1249;-46
2022/01/05 06:16:21;;;;;;;;;;;22.10;38.90;;;;;;482187;246;1244;-47
2022/01/05 06:18:21;;;;;;;;;;;21.90;39.30;;;;;;482084;247;2205;-47
2022/01/05 06:20:23;;;;;;;;;;;21.80;39.40;;;;;;482124;246;1208;-47
2022/01/05 06:22:25;;;;;;;;;;;21.70;39.60;;;;;;482195;246;1235;-47
2022/01/05 06:24:25;;;;;;;;;;;21.70;39.70;;;;;;482139;246;1713;-47
2022/01/05 06:26:27;;;;;;;;;;;21.60;39.90;;;;;;482226;246;2129;-46
2022/01/05 06:28:28;;;;;;;;;;;21.50;40.00;;;;;;482578;246;1238;-46
2022/01/05 06:30:29;;;;;;;;;;;21.50;40.10;;;;;;482313;246;1052;-47
2022/01/05 06:32:31;;;;;;;;;;;21.50;40.20;;;;;;482003;246;1158;-47
2022/01/05 06:34:32;;;;;;;;;;;21.40;40.20;;;;;;482160;246;1117;-46
2022/01/05 06:36:33;;;;;;;;;;;21.40;40.40;;;;;;482174;246;1689;-47
2022/01/05 06:38:35;;;;;;;;;;;21.40;40.40;;;;;;482444;246;1172;-46
2022/01/05 06:40:36;;;;;;;;;;;21.30;40.40;;;;;;482110;246;1565;-47
2022/01/05 06:42:37;;;;;;;;;;;21.30;40.50;;;;;;482026;246;1709;-46
2022/01/05 06:44:39;;;;;;;;;;;21.30;40.50;;;;;;482239;246;1055;-46
2022/01/05 06:46:40;;;;;;;;;;;21.20;40.60;;;;;;481980;246;2197;-46
2022/01/05 06:48:42;;;;;;;;;;;21.30;40.60;;;;;;482278;246;1124;-46
2022/01/05 06:50:43;;;;;;;;;;;21.20;40.60;;;;;;482089;246;1481;-46
2022/01/05 06:52:44;;;;;;;;;;;21.20;40.60;;;;;;482050;246;1137;-46
2022/01/05 06:54:46;;;;;;;;;;;21.20;40.70;;;;;;482237;246;1151;-46
2022/01/05 06:56:47;;;;;;;;;;;21.20;40.70;;;;;;482155;246;1512;-46
2022/01/05 06:58:48;;;;;;;;;;;21.10;40.70;;;;;;482276;246;1126;-46
2022/01/05 07:00:50;;;;;;;;;;;21.10;40.80;;;;;;482244;246;1203;-46
2022/01/05 07:02:51;;;;;;;;;;;21.10;40.90;;;;;;482313;246;1148;-47
2022/01/05 07:04:52;;;;;;;;;;;21.10;40.90;;;;;;482101;246;1296;-46
2022/01/05 07:06:53;;;;;;;;;;;21.10;40.90;;;;;;482226;246;2113;-46
2022/01/05 07:08:55;;;;;;;;;;;21.10;40.80;;;;;;482193;246;1093;-47
2022/01/05 07:10:56;;;;;;;;;;;21.10;40.90;;;;;;482024;246;1283;-46
2022/01/05 07:12:57;;;;;;;;;;;21.00;40.90;;;;;;482046;246;1263;-46
2022/01/05 07:14:59;;;;;;;;;;;21.10;40.90;;;;;;482089;246;1107;-47
2022/01/05 07:17:00;;;;;;;;;;;21.00;40.80;;;;;;482138;246;1194;-46
2022/01/05 07:19:01;;;;;;;;;;;21.00;40.80;;;;;;482098;246;1360;-46
2022/01/05 07:21:03;;;;;;;;;;;21.10;40.80;;;;;;482094;243;1207;-46
2022/01/05 07:23:04;;;;;;;;;;;21.00;40.80;;;;;;481987;246;1228;-46
2022/01/05 07:25:05;;;;;;;;;;;21.00;40.90;;;;;;482085;246;1121;-47
2022/01/05 07:27:07;;;;;;;;;;;21.00;40.90;;;;;;481816;246;2208;-46
2022/01/05 07:29:08;;;;;;;;;;;21.00;41.00;;;;;;482063;246;1077;-47
2022/01/05 07:31:09;;;;;;;;;;;21.00;40.90;;;;;;482195;246;1182;-47
2022/01/05 07:33:11;;;;;;;;;;;21.00;41.00;;;;;;482061;246;1483;-46
2022/01/05 07:35:12;;;;;;;;;;;21.00;40.90;;;;;;482167;246;1122;-47
2022/01/05 07:37:13;;;;;;;;;;;20.90;40.90;;;;;;481962;246;1526;-47
2022/01/05 07:39:14;;;;;;;;;;;20.90;41.00;;;;;;482049;246;1104;-46
2022/01/05 07:41:16;;;;;;;;;;;20.90;40.90;;;;;;481892;246;1161;-47
2022/01/05 07:43:17;;;;;;;;;;;20.80;41.00;;;;;;482137;246;1122;-46
2022/01/05 07:45:18;;;;;;;;;;;20.80;41.00;;;;;;482055;246;1051;-46
2022/01/05 07:47:20;;;;;;;;;;;20.90;40.90;;;;;;482042;246;2193;-46
2022/01/05 07:49:21;;;;;;;;;;;20.80;41.00;;;;;;482478;246;1123;-46
2022/01/05 07:51:22;;;;;;;;;;;20.80;41.00;;;;;;482008;246;1195;-46
2022/01/05 07:53:24;;;;;;;;;;;20.80;41.00;;;;;;482082;246;1081;-46
2022/01/05 07:55:25;;;;;;;;;;;20.80;41.00;;;;;;481961;246;1079;-46
2022/01/05 07:57:26;;;;;;;;;;;20.80;41.00;;;;;;481918;246;1244;-46
2022/01/05 07:59:28;;;;;;;;;;;20.80;41.00;;;;;;482153;246;1082;-46
2022/01/05 08:01:29;;;;;;;;;;;20.80;41.00;;;;;;481944;246;1226;-47
2022/01/05 08:03:33;;;;;;;;;;;20.80;40.90;;;;;;482031;246;1154;-46
2022/01/05 08:05:32;;;;;;;;;;;20.80;40.90;;;;;;481870;246;2227;-46
2022/01/05 08:07:33;;;;;;;;;;;20.80;41.00;;;;;;482127;246;2130;-47
2022/01/05 08:09:35;;;;;;;;;;;20.80;40.90;;;;;;482238;246;1206;-46
2022/01/05 08:11:36;;;;;;;;;;;20.80;40.90;;;;;;481949;246;1124;-46
2022/01/05 08:13:37;;;;;;;;;;;20.80;41.00;;;;;;482145;246;1045;-46
2022/01/05 08:15:39;;;;;;;;;;;20.80;40.90;;;;;;482198;246;1143;-46
2022/01/05 08:17:40;;;;;;;;;;;20.70;40.80;;;;;;481851;246;1350;-46
2022/01/05 08:19:42;;;;;;;;;;;20.70;40.90;;;;;;482157;246;1028;-46
2022/01/05 08:21:43;;;;;;;;;;;20.70;40.90;;;;;;482016;246;1281;-47
2022/01/05 08:23:44;;;;;;;;;;;20.70;40.90;;;;;;482088;246;1352;-46
2022/01/05 08:25:46;;;;;;;;;;;20.70;40.90;;;;;;482014;246;1112;-46
2022/01/05 08:27:47;;;;;;;;;;;20.70;40.80;;;;;;482206;246;2184;-46
2022/01/05 08:29:48;;;;;;;;;;;20.70;40.80;;;;;;481983;246;1052;-47
2022/01/05 08:31:50;;;;;;;;;;;20.70;40.80;;;;;;482094;246;1370;-46
2022/01/05 08:33:51;;;;;;;;;;;20.70;40.90;;;;;;481971;246;1120;-46
2022/01/05 08:35:52;;;;;;;;;;;20.70;40.90;;;;;;482191;246;1205;-47
2022/01/05 08:37:54;;;;;;;;;;;20.60;40.90;;;;;;481854;246;1168;-46
2022/01/05 08:39:55;;;;;;;;;;;20.70;40.90;;;;;;481864;246;1092;-46
2022/01/05 08:41:56;;;;;;;;;;;20.70;40.80;;;;;;481839;246;1198;-46
2022/01/05 08:43:58;;;;;;;;;;;20.60;40.80;;;;;;481801;246;1204;-47
2022/01/05 08:45:59;;;;;;;;;;;20.70;40.80;;;;;;481858;246;1442;-46
2022/01/05 08:48:00;;;;;;;;;;;20.70;40.80;;;;;;481894;246;2185;-46
2022/01/05 08:50:02;;;;;;;;;;;20.60;40.80;;;;;;482015;246;1119;-46
2022/01/05 08:52:03;;;;;;;;;;;20.60;40.80;;;;;;481879;246;1206;-46
2022/01/05 08:54:05;;;;;;;;;;;20.60;40.70;;;;;;482027;246;1134;-46
2022/01/05 08:56:06;;;;;;;;;;;20.60;40.80;;;;;;481905;246;1148;-46
2022/01/05 08:58:07;;;;;;;;;;;20.60;40.80;;;;;;482233;246;1179;-46
2022/01/05 09:00:09;;;;;;;;;;;20.50;40.80;;;;;;482097;246;1104;-46
2022/01/05 09:02:13;;;;;;;;;;;20.60;40.80;;;;;;481822;246;1181;-46
2022/01/05 09:04:11;;;;;;;;;;;20.50;40.80;;;;;;481555;247;2087;-46
2022/01/05 09:06:12;;;;;;;;;;;20.60;40.70;;;;;;481887;246;2201;-47
2022/01/05 09:08:14;;;;;;;;;;;20.50;40.80;;;;;;481852;246;1119;-47
2022/01/05 09:10:15;;;;;;;;;;;20.50;40.80;;;;;;481964;246;1382;-46
2022/01/05 09:12:16;;;;;;;;;;;20.50;40.80;;;;;;481694;246;1248;-46
2022/01/05 09:14:18;;;;;;;;;;;20.50;40.80;;;;;;481893;246;1035;-47
2022/01/05 09:16:20;;;;;;;;;;;20.50;40.70;;;;;;481837;246;1183;-46
2022/01/05 09:18:21;;;;;;;;;;;20.50;40.70;;;;;;481879;246;2096;-46
2022/01/05 09:20:22;;;;;;;;;;;20.50;40.70;;;;;;482122;246;1416;-46
2022/01/05 09:22:23;;;;;;;;;;;20.50;40.70;;;;;;481655;246;1206;-46
2022/01/05 09:24:25;;;;;;;;;;;20.50;40.60;;;;;;481991;246;1086;-47
2022/01/05 09:26:27;;;;;;;;;;;20.60;40.60;;;;;;481777;246;2181;-47
2022/01/05 09:28:28;;;;;;;;;;;20.50;40.50;;;;;;482009;246;1110;-46
2022/01/05 09:30:30;;;;;;;;;;;20.60;40.60;;;;;;482123;246;1218;-47
2022/01/05 09:32:31;;;;;;;;;;;20.50;40.60;;;;;;481797;246;1184;-46
2022/01/05 09:34:32;;;;;;;;;;;20.50;40.50;;;;;;481882;246;1069;-46
2022/01/05 09:36:37;;;;;;;;;;;20.50;40.60;;;;;;481915;246;1145;-47
2022/01/05 09:41:56;;;;;;;;;;;20.50;40.60;;;;;;481682;247;2064;-46
2022/01/05 09:42:57;;;;;;;;;;;20.50;40.60;;;;;;481649;247;1130;-46
2022/01/05 09:44:58;;;;;;;;;;;20.50;40.60;;;;;;481954;246;1049;-46
2022/01/05 09:46:59;;;;;;;;;;;20.50;40.50;;;;;;481917;246;2134;-46
2022/01/05 09:49:01;;;;;;;;;;;20.50;40.60;;;;;;481909;246;1106;-47
2022/01/05 09:51:02;;;;;;;;;;;20.50;40.60;;;;;;481917;246;1184;-47
2022/01/05 09:53:03;;;;;;;;;;;20.50;40.60;;;;;;481850;246;1123;-47
2022/01/05 09:55:05;;;;;;;;;;;20.50;40.50;;;;;;482015;246;1099;-47
2022/01/05 09:57:06;;;;;;;;;;;20.50;40.50;;;;;;481851;246;1279;-46
2022/01/05 09:59:07;;;;;;;;;;;20.50;40.50;;;;;;482106;246;1073;-46
2022/01/05 10:01:09;;;;;;;;;;;20.50;40.50;;;;;;481763;246;1183;-46
2022/01/05 10:03:10;;;;;;;;;;;20.50;40.50;;;;;;481737;246;1070;-46
2022/01/05 10:05:11;;;;;;;;;;;20.50;40.40;;;;;;481768;246;1102;-46
2022/01/05 10:07:13;;;;;;;;;;;20.40;40.50;;;;;;481730;246;2197;-46
2022/01/05 10:09:15;;;;;;;;;;;20.40;40.50;;;;;;481891;246;1064;-46
2022/01/05 10:11:17;;;;;;;;;;;20.50;40.40;;;;;;481824;246;1224;-46
2022/01/05 10:13:17;;;;;;;;;;;20.40;40.40;;;;;;481921;247;2150;-46
2022/01/05 10:15:19;;;;;;;;;;;20.50;40.30;;;;;;481835;246;1123;-46
2022/01/05 10:17:20;;;;;;;;;;;20.40;40.40;;;;;;481710;246;1175;-46
2022/01/05 10:19:21;;;;;;;;;;;20.50;40.40;;;;;;481846;246;1065;-47
2022/01/05 10:21:23;;;;;;;;;;;20.50;40.30;;;;;;481699;246;1342;-46
2022/01/05 10:23:24;;;;;;;;;;;20.50;40.30;;;;;;481859;246;1221;-46
2022/01/05 10:25:25;;;;;;;;;;;20.40;40.30;;;;;;481898;246;1076;-46
2022/01/05 10:27:27;;;;;;;;;;;20.50;40.20;;;;;;481942;246;2146;-46
2022/01/05 10:29:28;;;;;;;;;;;20.50;40.30;;;;;;481781;246;1043;-46
2022/01/05 10:31:30;;;;;;;;;;;20.50;40.30;;;;;;481851;246;1377;-47
2022/01/05 10:33:33;;;;;;;;;;;20.50;40.20;;;;;;481852;246;1384;-46
2022/01/05 10:35:33;;;;;;;;;;;20.40;40.30;;;;;;481793;247;2120;-46
2022/01/05 10:37:34;;;;;;;;;;;20.40;40.40;;;;;;481814;247;2172;-46
2022/01/05 10:39:35;;;;;;;;;;;20.30;40.30;;;;;;482055;246;1009;-46
2022/01/05 10:41:36;;;;;;;;;;;20.30;40.20;;;;;;481968;246;1336;-46
2022/01/05 10:43:37;;;;;;;;;;;20.40;40.20;;;;;;482004;246;1257;-46
2022/01/05 10:45:39;;;;;;;;;;;20.40;40.20;;;;;;481881;246;1070;-46
2022/01/05 10:47:41;;;;;;;;;;;20.40;40.20;;;;;;481795;246;2197;-46
2022/01/05 10:49:41;;;;;;;;;;;20.30;40.30;;;;;;482001;246;1362;-46
2022/01/05 10:51:43;;;;;;;;;;;20.30;40.20;;;;;;481891;246;1770;-46
2022/01/05 10:53:44;;;;;;;;;;;20.30;40.20;;;;;;481837;246;1037;-46
2022/01/05 10:55:45;;;;;;;;;;;20.30;40.20;;;;;;482035;246;1199;-47
2022/01/05 10:57:47;;;;;;;;;;;20.30;40.20;;;;;;482025;246;1271;-46
2022/01/05 10:59:48;;;;;;;;;;;20.30;40.10;;;;;;482021;246;1027;-46
2022/01/05 11:01:51;;;;;;;;;;;20.30;40.10;;;;;;481732;246;1172;-46
2022/01/05 11:03:51;;;;;;;;;;;20.30;40.10;;;;;;481739;246;2259;-46
2022/01/05 11:05:52;;;;;;;;;;;20.40;40.20;;;;;;481813;246;1429;-46
2022/01/05 11:07:54;;;;;;;;;;;20.30;40.00;;;;;;481937;246;2185;-46
2022/01/05 11:09:55;;;;;;;;;;;20.30;40.10;;;;;;481738;246;1041;-46
2022/01/05 11:11:56;;;;;;;;;;;20.30;40.10;;;;;;481724;246;1306;-46
2022/01/05 11:13:58;;;;;;;;;;;20.30;40.00;;;;;;481809;246;1077;-46
2022/01/05 11:15:59;;;;;;;;;;;20.30;40.00;;;;;;481774;246;1362;-46
2022/01/05 11:18:00;;;;;;;;;;;20.30;39.90;;;;;;481971;246;1177;-46
2022/01/05 11:20:02;;;;;;;;;;;20.40;40.00;;;;;;481913;246;1206;-46
2022/01/05 11:22:03;;;;;;;;;;;20.40;39.90;;;;;;481829;246;1252;-46
2022/01/05 11:24:04;;;;;;;;;;;20.40;40.00;;;;;;481790;246;1129;-46
2022/01/05 11:26:06;;;;;;;;;;;20.30;40.00;;;;;;481728;246;1253;-46
2022/01/05 11:28:07;;;;;;;;;;;20.40;40.00;;;;;;482082;246;2240;-46
2022/01/05 11:30:09;;;;;;;;;;;20.30;40.00;;;;;;481970;246;1055;-47
2022/01/05 11:32:10;;;;;;;;;;;20.30;39.90;;;;;;481782;246;1156;-46
2022/01/05 11:34:11;;;;;;;;;;;20.40;40.00;;;;;;481845;246;1092;-46
2022/01/05 11:36:12;;;;;;;;;;;20.40;39.90;;;;;;481889;246;1228;-46
2022/01/05 11:38:14;;;;;;;;;;;20.30;39.90;;;;;;481816;246;1323;-46
2022/01/05 11:40:15;;;;;;;;;;;20.40;39.90;;;;;;481911;246;1227;-46
2022/01/05 11:42:16;;;;;;;;;;;20.30;39.80;;;;;;481657;246;1230;-46
2022/01/05 11:44:18;;;;;;;;;;;20.40;40.00;;;;;;481913;246;1516;-46
2022/01/05 11:46:19;;;;;;;;;;;20.30;40.00;;;;;;481819;246;1490;-46
2022/01/05 11:48:21;;;;;;;;;;;20.30;40.00;;;;;;481844;246;2192;-46
2022/01/05 11:50:22;;;;;;;;;;;20.30;40.00;;;;;;481912;246;1412;-46
2022/01/05 11:52:23;;;;;;;;;;;20.30;39.90;;;;;;481804;246;1413;-46
2022/01/05 11:54:25;;;;;;;;;;;20.30;39.90;;;;;;481816;246;1406;-46
2022/01/05 11:56:26;;;;;;;;;;;20.30;39.90;;;;;;481577;246;1320;-46
2022/01/05 11:58:27;;;;;;;;;;;20.30;39.90;;;;;;481699;246;1077;-46